sensor_id;sensor_type;location;lat;lon;timestamp;P1;durP1;ratioP1;P2;durP2;ratioP2
5845;SDS011;2949;50.778;7.094;2022-10-19T00:01:47;54.17;;;16.30;;
5845;SDS011;2949;50.778;7.094;2022-10-19T00:04:12;49.50;;;14.80;;
5845;SDS011;2949;50.778;7.094;2022-10-19T00:06:38;45.80;;;15.80;;
5845;SDS011;2949;50.778;7.094;2022-10-19T00:09:05;87.13;;;15.27;;
5845;SDS011;2949;50.778;7.094;2022-10-19T00:11:37;65.47;;;15.97;;
5845;SDS011;2949;50.778;7.094;2022-10-19T00:14:05;81.33;;;15.07;;
5845;SDS011;2949;50.778;7.094;2022-10-19T00:16:33;53.47;;;12.00;;
5845;SDS011;2949;50.778;7.094;2022-10-19T00:19:03;72.53;;;12.27;;
5845;SDS011;2949;50.778;7.094;2022-10-19T00:21:31;83.80;;;12.07;;
5845;SDS011;2949;50.778;7.094;2022-10-19T00:23:57;62.57;;;12.17;;
5845;SDS011;2949;50.778;7.094;2022-10-19T00:26:22;69.67;;;13.60;;
5845;SDS011;2949;50.778;7.094;2022-10-19T00:28:48;111.07;;;10.97;;
5845;SDS011;2949;50.778;7.094;2022-10-19T00:31:16;99.47;;;10.60;;
5845;SDS011;2949;50.778;7.094;2022-10-19T00:33:42;97.90;;;10.50;;
5845;SDS011;2949;50.778;7.094;2022-10-19T00:36:30;164.93;;;13.37;;
5845;SDS011;2949;50.778;7.094;2022-10-19T00:39:02;110.17;;;12.80;;
5845;SDS011;2949;50.778;7.094;2022-10-19T00:41:29;136.07;;;14.00;;
5845;SDS011;2949;50.778;7.094;2022-10-19T00:46:27;140.80;;;14.47;;
5845;SDS011;2949;50.778;7.094;2022-10-19T00:49:00;78.20;;;12.10;;
5845;SDS011;2949;50.778;7.094;2022-10-19T00:51:47;65.27;;;12.23;;
5845;SDS011;2949;50.778;7.094;2022-10-19T00:54:15;45.23;;;11.30;;
5845;SDS011;2949;50.778;7.094;2022-10-19T00:56:43;90.93;;;12.77;;
5845;SDS011;2949;50.778;7.094;2022-10-19T00:59:12;57.40;;;12.57;;
5845;SDS011;2949;50.778;7.094;2022-10-19T01:01:40;48.17;;;10.80;;
5845;SDS011;2949;50.778;7.094;2022-10-19T01:04:08;71.13;;;13.27;;
5845;SDS011;2949;50.778;7.094;2022-10-19T01:06:34;38.27;;;10.80;;
5845;SDS011;2949;50.778;7.094;2022-10-19T01:09:00;84.73;;;11.67;;
5845;SDS011;2949;50.778;7.094;2022-10-19T01:17:17;127.03;;;14.10;;
5845;SDS011;2949;50.778;7.094;2022-10-19T01:28:46;98.17;;;12.40;;
5845;SDS011;2949;50.778;7.094;2022-10-19T01:31:36;190.03;;;16.40;;
5845;SDS011;2949;50.778;7.094;2022-10-19T01:34:17;184.77;;;13.70;;
5845;SDS011;2949;50.778;7.094;2022-10-19T01:37:05;78.33;;;12.63;;
5845;SDS011;2949;50.778;7.094;2022-10-19T01:39:56;63.20;;;12.20;;
5845;SDS011;2949;50.778;7.094;2022-10-19T01:45:05;49.07;;;11.10;;
5845;SDS011;2949;50.778;7.094;2022-10-19T01:47:46;84.57;;;12.43;;
5845;SDS011;2949;50.778;7.094;2022-10-19T01:53:03;37.10;;;9.77;;
5845;SDS011;2949;50.778;7.094;2022-10-19T01:55:32;46.80;;;11.50;;
5845;SDS011;2949;50.778;7.094;2022-10-19T01:57:59;63.30;;;10.77;;
5845;SDS011;2949;50.778;7.094;2022-10-19T02:00:29;72.63;;;12.77;;
5845;SDS011;2949;50.778;7.094;2022-10-19T02:02:56;57.10;;;11.90;;
5845;SDS011;2949;50.778;7.094;2022-10-19T02:05:26;29.90;;;10.37;;
5845;SDS011;2949;50.778;7.094;2022-10-19T02:07:56;75.20;;;11.30;;
5845;SDS011;2949;50.778;7.094;2022-10-19T02:10:25;26.33;;;10.50;;
5845;SDS011;2949;50.778;7.094;2022-10-19T02:12:52;40.23;;;11.40;;
5845;SDS011;2949;50.778;7.094;2022-10-19T02:15:20;59.93;;;12.50;;
5845;SDS011;2949;50.778;7.094;2022-10-19T02:17:50;31.23;;;11.50;;
5845;SDS011;2949;50.778;7.094;2022-10-19T02:20:20;63.93;;;10.70;;
5845;SDS011;2949;50.778;7.094;2022-10-19T02:22:46;57.87;;;12.53;;
5845;SDS011;2949;50.778;7.094;2022-10-19T02:25:12;52.67;;;11.13;;
5845;SDS011;2949;50.778;7.094;2022-10-19T02:27:38;131.00;;;11.33;;
5845;SDS011;2949;50.778;7.094;2022-10-19T02:30:12;121.93;;;11.93;;
5845;SDS011;2949;50.778;7.094;2022-10-19T02:32:39;82.77;;;9.47;;
5845;SDS011;2949;50.778;7.094;2022-10-19T02:35:06;51.80;;;9.30;;
5845;SDS011;2949;50.778;7.094;2022-10-19T02:37:32;62.73;;;9.50;;
5845;SDS011;2949;50.778;7.094;2022-10-19T02:39:58;128.77;;;12.07;;
5845;SDS011;2949;50.778;7.094;2022-10-19T02:42:26;33.97;;;9.80;;
5845;SDS011;2949;50.778;7.094;2022-10-19T02:45:02;54.17;;;11.27;;
5845;SDS011;2949;50.778;7.094;2022-10-19T02:47:38;39.03;;;10.00;;
5845;SDS011;2949;50.778;7.094;2022-10-19T02:50:09;85.47;;;11.37;;
5845;SDS011;2949;50.778;7.094;2022-10-19T02:52:35;113.57;;;11.17;;
5845;SDS011;2949;50.778;7.094;2022-10-19T02:55:02;37.20;;;10.73;;
5845;SDS011;2949;50.778;7.094;2022-10-19T02:57:28;105.60;;;12.53;;
5845;SDS011;2949;50.778;7.094;2022-10-19T02:59:56;158.13;;;13.20;;
5845;SDS011;2949;50.778;7.094;2022-10-19T03:02:22;32.53;;;11.60;;
5845;SDS011;2949;50.778;7.094;2022-10-19T03:04:47;103.53;;;11.33;;
5845;SDS011;2949;50.778;7.094;2022-10-19T03:07:14;71.27;;;12.00;;
5845;SDS011;2949;50.778;7.094;2022-10-19T03:09:42;122.50;;;12.27;;
5845;SDS011;2949;50.778;7.094;2022-10-19T03:12:08;132.23;;;12.50;;
5845;SDS011;2949;50.778;7.094;2022-10-19T03:14:34;49.60;;;12.07;;
5845;SDS011;2949;50.778;7.094;2022-10-19T03:17:00;71.17;;;13.00;;
5845;SDS011;2949;50.778;7.094;2022-10-19T03:19:26;27.37;;;11.17;;
5845;SDS011;2949;50.778;7.094;2022-10-19T03:21:51;39.93;;;12.00;;
5845;SDS011;2949;50.778;7.094;2022-10-19T03:24:17;43.53;;;13.03;;
5845;SDS011;2949;50.778;7.094;2022-10-19T03:26:42;42.73;;;13.93;;
5845;SDS011;2949;50.778;7.094;2022-10-19T03:29:08;46.27;;;14.00;;
5845;SDS011;2949;50.778;7.094;2022-10-19T03:31:34;38.87;;;13.67;;
5845;SDS011;2949;50.778;7.094;2022-10-19T03:33:59;49.60;;;14.07;;
5845;SDS011;2949;50.778;7.094;2022-10-19T03:36:27;64.03;;;16.63;;
5845;SDS011;2949;50.778;7.094;2022-10-19T03:38:54;46.83;;;15.17;;
5845;SDS011;2949;50.778;7.094;2022-10-19T03:41:22;44.07;;;14.33;;
5845;SDS011;2949;50.778;7.094;2022-10-19T03:43:50;69.67;;;17.57;;
5845;SDS011;2949;50.778;7.094;2022-10-19T03:46:16;46.13;;;15.43;;
5845;SDS011;2949;50.778;7.094;2022-10-19T03:48:42;50.17;;;16.67;;
5845;SDS011;2949;50.778;7.094;2022-10-19T03:51:09;51.30;;;16.43;;
5845;SDS011;2949;50.778;7.094;2022-10-19T03:53:37;61.33;;;17.13;;
5845;SDS011;2949;50.778;7.094;2022-10-19T03:56:05;83.37;;;17.67;;
5845;SDS011;2949;50.778;7.094;2022-10-19T03:58:38;48.67;;;17.40;;
5845;SDS011;2949;50.778;7.094;2022-10-19T04:01:06;35.90;;;14.90;;
5845;SDS011;2949;50.778;7.094;2022-10-19T04:03:34;98.17;;;15.97;;
5845;SDS011;2949;50.778;7.094;2022-10-19T04:06:00;79.30;;;15.30;;
5845;SDS011;2949;50.778;7.094;2022-10-19T04:08:27;64.87;;;14.00;;
5845;SDS011;2949;50.778;7.094;2022-10-19T04:10:57;67.27;;;12.93;;
5845;SDS011;2949;50.778;7.094;2022-10-19T04:13:25;28.10;;;10.77;;
5845;SDS011;2949;50.778;7.094;2022-10-19T04:15:50;42.27;;;11.90;;
5845;SDS011;2949;50.778;7.094;2022-10-19T04:18:16;35.53;;;10.67;;
5845;SDS011;2949;50.778;7.094;2022-10-19T04:20:41;36.77;;;10.63;;
5845;SDS011;2949;50.778;7.094;2022-10-19T04:23:07;120.77;;;12.57;;
5845;SDS011;2949;50.778;7.094;2022-10-19T04:25:33;72.93;;;11.53;;
5845;SDS011;2949;50.778;7.094;2022-10-19T04:27:59;88.63;;;12.60;;
5845;SDS011;2949;50.778;7.094;2022-10-19T04:30:24;85.10;;;10.33;;
5845;SDS011;2949;50.778;7.094;2022-10-19T04:32:50;32.50;;;11.20;;
5845;SDS011;2949;50.778;7.094;2022-10-19T04:35:16;45.17;;;10.73;;
5845;SDS011;2949;50.778;7.094;2022-10-19T04:37:41;40.43;;;10.37;;
5845;SDS011;2949;50.778;7.094;2022-10-19T04:40:07;56.97;;;10.70;;
5845;SDS011;2949;50.778;7.094;2022-10-19T04:42:33;24.67;;;10.60;;
5845;SDS011;2949;50.778;7.094;2022-10-19T04:44:59;104.97;;;12.03;;
5845;SDS011;2949;50.778;7.094;2022-10-19T04:47:24;42.00;;;11.63;;
5845;SDS011;2949;50.778;7.094;2022-10-19T04:49:50;111.53;;;13.30;;
5845;SDS011;2949;50.778;7.094;2022-10-19T04:52:15;83.90;;;11.63;;
5845;SDS011;2949;50.778;7.094;2022-10-19T04:54:41;86.20;;;13.20;;
5845;SDS011;2949;50.778;7.094;2022-10-19T04:57:06;54.97;;;11.23;;
5845;SDS011;2949;50.778;7.094;2022-10-19T04:59:32;31.80;;;9.63;;
5845;SDS011;2949;50.778;7.094;2022-10-19T05:01:57;23.77;;;10.47;;
5845;SDS011;2949;50.778;7.094;2022-10-19T05:04:23;48.03;;;10.90;;
5845;SDS011;2949;50.778;7.094;2022-10-19T05:06:48;81.00;;;12.37;;
5845;SDS011;2949;50.778;7.094;2022-10-19T05:09:14;27.80;;;11.20;;
5845;SDS011;2949;50.778;7.094;2022-10-19T05:11:39;28.93;;;11.20;;
5845;SDS011;2949;50.778;7.094;2022-10-19T05:14:05;19.63;;;11.00;;
5845;SDS011;2949;50.778;7.094;2022-10-19T05:16:30;22.77;;;9.90;;
5845;SDS011;2949;50.778;7.094;2022-10-19T05:18:56;26.13;;;10.63;;
5845;SDS011;2949;50.778;7.094;2022-10-19T05:21:23;70.23;;;9.80;;
5845;SDS011;2949;50.778;7.094;2022-10-19T05:23:50;41.87;;;9.90;;
5845;SDS011;2949;50.778;7.094;2022-10-19T05:26:17;35.17;;;8.97;;
5845;SDS011;2949;50.778;7.094;2022-10-19T05:28:51;38.67;;;9.47;;
5845;SDS011;2949;50.778;7.094;2022-10-19T05:31:21;22.83;;;8.70;;
5845;SDS011;2949;50.778;7.094;2022-10-19T05:33:48;21.73;;;11.97;;
5845;SDS011;2949;50.778;7.094;2022-10-19T05:36:16;17.23;;;9.40;;
5845;SDS011;2949;50.778;7.094;2022-10-19T05:38:52;17.17;;;9.50;;
5845;SDS011;2949;50.778;7.094;2022-10-19T05:41:20;25.27;;;10.00;;
5845;SDS011;2949;50.778;7.094;2022-10-19T05:43:46;24.03;;;10.67;;
5845;SDS011;2949;50.778;7.094;2022-10-19T05:46:20;18.33;;;9.20;;
5845;SDS011;2949;50.778;7.094;2022-10-19T05:48:46;14.53;;;9.67;;
5845;SDS011;2949;50.778;7.094;2022-10-19T05:51:13;17.67;;;9.67;;
5845;SDS011;2949;50.778;7.094;2022-10-19T05:53:40;22.50;;;10.63;;
5845;SDS011;2949;50.778;7.094;2022-10-19T05:56:07;19.47;;;10.43;;
5845;SDS011;2949;50.778;7.094;2022-10-19T05:58:34;16.90;;;9.90;;
5845;SDS011;2949;50.778;7.094;2022-10-19T06:01:00;19.77;;;9.23;;
5845;SDS011;2949;50.778;7.094;2022-10-19T06:03:26;18.73;;;8.97;;
5845;SDS011;2949;50.778;7.094;2022-10-19T06:05:52;18.63;;;11.00;;
5845;SDS011;2949;50.778;7.094;2022-10-19T06:08:19;16.03;;;9.30;;
5845;SDS011;2949;50.778;7.094;2022-10-19T06:10:46;18.97;;;9.77;;
5845;SDS011;2949;50.778;7.094;2022-10-19T06:13:12;24.40;;;10.10;;
5845;SDS011;2949;50.778;7.094;2022-10-19T06:15:39;21.90;;;10.80;;
5845;SDS011;2949;50.778;7.094;2022-10-19T06:18:08;20.70;;;11.13;;
5845;SDS011;2949;50.778;7.094;2022-10-19T06:20:37;20.63;;;11.17;;
5845;SDS011;2949;50.778;7.094;2022-10-19T06:23:04;20.20;;;10.30;;
5845;SDS011;2949;50.778;7.094;2022-10-19T06:25:30;20.40;;;9.80;;
5845;SDS011;2949;50.778;7.094;2022-10-19T06:27:57;20.40;;;9.73;;
5845;SDS011;2949;50.778;7.094;2022-10-19T06:30:23;19.23;;;10.53;;
5845;SDS011;2949;50.778;7.094;2022-10-19T06:32:49;20.47;;;9.80;;
5845;SDS011;2949;50.778;7.094;2022-10-19T06:35:14;24.17;;;11.30;;
5845;SDS011;2949;50.778;7.094;2022-10-19T06:37:41;25.07;;;11.80;;
5845;SDS011;2949;50.778;7.094;2022-10-19T06:40:07;25.30;;;11.43;;
5845;SDS011;2949;50.778;7.094;2022-10-19T06:42:33;24.53;;;11.20;;
5845;SDS011;2949;50.778;7.094;2022-10-19T06:45:02;26.27;;;11.80;;
5845;SDS011;2949;50.778;7.094;2022-10-19T06:47:34;19.63;;;11.50;;
5845;SDS011;2949;50.778;7.094;2022-10-19T06:50:00;26.50;;;12.47;;
5845;SDS011;2949;50.778;7.094;2022-10-19T06:52:31;24.50;;;11.17;;
5845;SDS011;2949;50.778;7.094;2022-10-19T06:54:57;24.27;;;11.47;;
5845;SDS011;2949;50.778;7.094;2022-10-19T06:57:22;21.90;;;11.43;;
5845;SDS011;2949;50.778;7.094;2022-10-19T06:59:48;17.27;;;9.60;;
5845;SDS011;2949;50.778;7.094;2022-10-19T07:02:13;22.73;;;10.60;;
5845;SDS011;2949;50.778;7.094;2022-10-19T07:04:39;23.87;;;10.30;;
5845;SDS011;2949;50.778;7.094;2022-10-19T07:07:04;20.23;;;11.43;;
5845;SDS011;2949;50.778;7.094;2022-10-19T07:09:31;18.33;;;10.40;;
5845;SDS011;2949;50.778;7.094;2022-10-19T07:11:56;17.93;;;10.40;;
5845;SDS011;2949;50.778;7.094;2022-10-19T07:14:22;21.37;;;11.00;;
5845;SDS011;2949;50.778;7.094;2022-10-19T07:16:52;24.73;;;10.50;;
5845;SDS011;2949;50.778;7.094;2022-10-19T07:19:18;22.80;;;12.23;;
5845;SDS011;2949;50.778;7.094;2022-10-19T07:21:44;17.57;;;10.63;;
5845;SDS011;2949;50.778;7.094;2022-10-19T07:24:10;21.37;;;11.27;;
5845;SDS011;2949;50.778;7.094;2022-10-19T07:26:36;18.53;;;9.90;;
5845;SDS011;2949;50.778;7.094;2022-10-19T07:29:02;23.10;;;11.33;;
5845;SDS011;2949;50.778;7.094;2022-10-19T07:31:28;27.37;;;12.23;;
5845;SDS011;2949;50.778;7.094;2022-10-19T07:33:57;20.87;;;10.10;;
5845;SDS011;2949;50.778;7.094;2022-10-19T07:36:24;17.93;;;10.20;;
5845;SDS011;2949;50.778;7.094;2022-10-19T07:38:50;19.60;;;11.47;;
5845;SDS011;2949;50.778;7.094;2022-10-19T07:41:17;22.30;;;10.77;;
5845;SDS011;2949;50.778;7.094;2022-10-19T07:43:45;20.70;;;9.60;;
5845;SDS011;2949;50.778;7.094;2022-10-19T07:46:12;24.20;;;10.70;;
5845;SDS011;2949;50.778;7.094;2022-10-19T07:48:39;20.67;;;9.63;;
5845;SDS011;2949;50.778;7.094;2022-10-19T07:51:06;23.37;;;11.47;;
5845;SDS011;2949;50.778;7.094;2022-10-19T07:53:33;21.80;;;11.80;;
5845;SDS011;2949;50.778;7.094;2022-10-19T07:56:07;19.70;;;10.30;;
5845;SDS011;2949;50.778;7.094;2022-10-19T07:58:34;17.97;;;9.43;;
5845;SDS011;2949;50.778;7.094;2022-10-19T08:01:05;12.70;;;9.60;;
5845;SDS011;2949;50.778;7.094;2022-10-19T08:03:32;27.17;;;9.13;;
5845;SDS011;2949;50.778;7.094;2022-10-19T08:05:59;15.77;;;9.47;;
5845;SDS011;2949;50.778;7.094;2022-10-19T08:08:30;18.37;;;9.20;;
5845;SDS011;2949;50.778;7.094;2022-10-19T08:10:55;19.63;;;9.90;;
5845;SDS011;2949;50.778;7.094;2022-10-19T08:13:21;14.03;;;8.70;;
5845;SDS011;2949;50.778;7.094;2022-10-19T08:15:47;17.87;;;9.43;;
5845;SDS011;2949;50.778;7.094;2022-10-19T08:18:13;14.23;;;8.87;;
5845;SDS011;2949;50.778;7.094;2022-10-19T08:20:40;15.07;;;7.27;;
5845;SDS011;2949;50.778;7.094;2022-10-19T08:23:08;10.10;;;7.37;;
5845;SDS011;2949;50.778;7.094;2022-10-19T08:25:33;19.33;;;7.83;;
5845;SDS011;2949;50.778;7.094;2022-10-19T08:27:59;9.50;;;6.67;;
5845;SDS011;2949;50.778;7.094;2022-10-19T08:30:24;14.93;;;7.30;;
5845;SDS011;2949;50.778;7.094;2022-10-19T08:32:50;9.50;;;6.77;;
5845;SDS011;2949;50.778;7.094;2022-10-19T08:35:15;9.43;;;7.37;;
5845;SDS011;2949;50.778;7.094;2022-10-19T08:37:41;13.00;;;7.23;;
5845;SDS011;2949;50.778;7.094;2022-10-19T08:40:08;12.37;;;6.70;;
5845;SDS011;2949;50.778;7.094;2022-10-19T08:45:30;11.47;;;7.50;;
5845;SDS011;2949;50.778;7.094;2022-10-19T08:50:39;12.03;;;7.73;;
5845;SDS011;2949;50.778;7.094;2022-10-19T08:53:11;13.20;;;6.10;;
5845;SDS011;2949;50.778;7.094;2022-10-19T08:55:43;10.10;;;7.73;;
5845;SDS011;2949;50.778;7.094;2022-10-19T08:58:31;9.00;;;6.27;;
5845;SDS011;2949;50.778;7.094;2022-10-19T09:03:46;6.53;;;4.70;;
5845;SDS011;2949;50.778;7.094;2022-10-19T09:06:25;9.97;;;4.80;;
5845;SDS011;2949;50.778;7.094;2022-10-19T09:09:11;6.97;;;4.53;;
5845;SDS011;2949;50.778;7.094;2022-10-19T09:11:39;9.63;;;4.53;;
5845;SDS011;2949;50.778;7.094;2022-10-19T09:16:58;6.33;;;3.63;;
5845;SDS011;2949;50.778;7.094;2022-10-19T09:19:26;5.03;;;3.03;;
5845;SDS011;2949;50.778;7.094;2022-10-19T09:21:56;6.30;;;4.30;;
5845;SDS011;2949;50.778;7.094;2022-10-19T09:24:28;10.43;;;3.97;;
5845;SDS011;2949;50.778;7.094;2022-10-19T09:27:00;4.60;;;3.47;;
5845;SDS011;2949;50.778;7.094;2022-10-19T09:32:20;5.23;;;3.93;;
5845;SDS011;2949;50.778;7.094;2022-10-19T09:34:51;4.83;;;3.60;;
5845;SDS011;2949;50.778;7.094;2022-10-19T09:37:20;5.30;;;2.93;;
5845;SDS011;2949;50.778;7.094;2022-10-19T09:39:46;3.97;;;3.07;;
5845;SDS011;2949;50.778;7.094;2022-10-19T09:42:16;4.67;;;3.77;;
5845;SDS011;2949;50.778;7.094;2022-10-19T09:44:47;4.83;;;2.77;;
5845;SDS011;2949;50.778;7.094;2022-10-19T09:47:25;5.10;;;3.13;;
5845;SDS011;2949;50.778;7.094;2022-10-19T09:52:45;4.50;;;3.73;;
5845;SDS011;2949;50.778;7.094;2022-10-19T09:57:41;4.17;;;3.63;;
5845;SDS011;2949;50.778;7.094;2022-10-19T10:00:17;3.07;;;2.77;;
5845;SDS011;2949;50.778;7.094;2022-10-19T10:02:52;8.53;;;3.47;;
5845;SDS011;2949;50.778;7.094;2022-10-19T10:05:18;3.27;;;2.63;;
5845;SDS011;2949;50.778;7.094;2022-10-19T10:07:53;6.03;;;2.83;;
5845;SDS011;2949;50.778;7.094;2022-10-19T10:10:20;4.60;;;2.90;;
5845;SDS011;2949;50.778;7.094;2022-10-19T10:12:48;4.93;;;3.53;;
5845;SDS011;2949;50.778;7.094;2022-10-19T10:15:16;2.83;;;2.60;;
5845;SDS011;2949;50.778;7.094;2022-10-19T10:17:47;7.17;;;3.03;;
5845;SDS011;2949;50.778;7.094;2022-10-19T10:20:22;5.50;;;3.63;;
5845;SDS011;2949;50.778;7.094;2022-10-19T10:22:53;8.57;;;2.87;;
5845;SDS011;2949;50.778;7.094;2022-10-19T10:25:22;3.57;;;2.80;;
5845;SDS011;2949;50.778;7.094;2022-10-19T10:28:32;2.30;;;2.07;;
5845;SDS011;2949;50.778;7.094;2022-10-19T10:30:39;5.77;;;2.73;;
5845;SDS011;2949;50.778;7.094;2022-10-19T10:33:04;7.47;;;3.07;;
5845;SDS011;2949;50.778;7.094;2022-10-19T10:35:34;7.67;;;3.50;;
5845;SDS011;2949;50.778;7.094;2022-10-19T10:38:15;5.97;;;3.60;;
5845;SDS011;2949;50.778;7.094;2022-10-19T10:40:49;5.80;;;3.83;;
5845;SDS011;2949;50.778;7.094;2022-10-19T10:43:17;6.30;;;3.53;;
5845;SDS011;2949;50.778;7.094;2022-10-19T10:45:49;5.93;;;3.27;;
5845;SDS011;2949;50.778;7.094;2022-10-19T10:48:28;8.67;;;3.20;;
5845;SDS011;2949;50.778;7.094;2022-10-19T10:50:55;4.50;;;3.07;;
5845;SDS011;2949;50.778;7.094;2022-10-19T10:53:38;8.00;;;4.13;;
5845;SDS011;2949;50.778;7.094;2022-10-19T10:56:18;9.50;;;4.80;;
5845;SDS011;2949;50.778;7.094;2022-10-19T11:01:31;9.47;;;3.90;;
5845;SDS011;2949;50.778;7.094;2022-10-19T11:04:03;7.00;;;3.90;;
5845;SDS011;2949;50.778;7.094;2022-10-19T11:06:44;10.73;;;4.67;;
5845;SDS011;2949;50.778;7.094;2022-10-19T11:09:35;11.73;;;3.60;;
5845;SDS011;2949;50.778;7.094;2022-10-19T11:12:08;6.20;;;3.60;;
5845;SDS011;2949;50.778;7.094;2022-10-19T11:14:43;10.50;;;3.80;;
5845;SDS011;2949;50.778;7.094;2022-10-19T11:17:22;6.07;;;3.93;;
5845;SDS011;2949;50.778;7.094;2022-10-19T11:19:51;5.87;;;4.40;;
5845;SDS011;2949;50.778;7.094;2022-10-19T11:25:11;6.13;;;3.43;;
5845;SDS011;2949;50.778;7.094;2022-10-19T11:27:49;6.87;;;3.50;;
5845;SDS011;2949;50.778;7.094;2022-10-19T11:30:19;7.93;;;4.00;;
5845;SDS011;2949;50.778;7.094;2022-10-19T11:43:18;7.50;;;3.03;;
5845;SDS011;2949;50.778;7.094;2022-10-19T11:46:00;9.67;;;3.77;;
5845;SDS011;2949;50.778;7.094;2022-10-19T11:48:43;8.40;;;3.80;;
5845;SDS011;2949;50.778;7.094;2022-10-19T11:51:35;10.67;;;3.77;;
5845;SDS011;2949;50.778;7.094;2022-10-19T11:57:09;9.00;;;3.57;;
5845;SDS011;2949;50.778;7.094;2022-10-19T11:59:43;4.77;;;3.00;;
5845;SDS011;2949;50.778;7.094;2022-10-19T12:05:11;13.20;;;3.40;;
5845;SDS011;2949;50.778;7.094;2022-10-19T12:07:52;10.13;;;3.53;;
5845;SDS011;2949;50.778;7.094;2022-10-19T12:13:04;4.83;;;3.23;;
5845;SDS011;2949;50.778;7.094;2022-10-19T12:15:39;5.27;;;3.33;;
5845;SDS011;2949;50.778;7.094;2022-10-19T12:18:31;5.87;;;2.70;;
5845;SDS011;2949;50.778;7.094;2022-10-19T12:21:10;7.00;;;2.80;;
5845;SDS011;2949;50.778;7.094;2022-10-19T12:23:43;6.17;;;3.10;;
5845;SDS011;2949;50.778;7.094;2022-10-19T12:26:13;12.60;;;3.57;;
5845;SDS011;2949;50.778;7.094;2022-10-19T12:28:40;7.60;;;2.80;;
5845;SDS011;2949;50.778;7.094;2022-10-19T12:31:10;7.53;;;3.10;;
5845;SDS011;2949;50.778;7.094;2022-10-19T12:33:41;12.63;;;3.23;;
5845;SDS011;2949;50.778;7.094;2022-10-19T12:39:26;10.00;;;2.50;;
5845;SDS011;2949;50.778;7.094;2022-10-19T12:44:52;5.30;;;2.43;;
5845;SDS011;2949;50.778;7.094;2022-10-19T12:47:29;6.50;;;3.50;;
5845;SDS011;2949;50.778;7.094;2022-10-19T12:49:55;8.00;;;3.20;;
5845;SDS011;2949;50.778;7.094;2022-10-19T12:57:40;9.17;;;3.17;;
5845;SDS011;2949;50.778;7.094;2022-10-19T13:00:22;11.87;;;2.83;;
5845;SDS011;2949;50.778;7.094;2022-10-19T13:02:56;5.93;;;2.70;;
5845;SDS011;2949;50.778;7.094;2022-10-19T13:05:22;7.07;;;3.50;;
5845;SDS011;2949;50.778;7.094;2022-10-19T13:07:50;8.93;;;3.37;;
5845;SDS011;2949;50.778;7.094;2022-10-19T13:10:20;6.13;;;2.90;;
5845;SDS011;2949;50.778;7.094;2022-10-19T13:12:49;6.30;;;2.80;;
5845;SDS011;2949;50.778;7.094;2022-10-19T13:18:03;7.70;;;3.00;;
5845;SDS011;2949;50.778;7.094;2022-10-19T13:25:35;7.10;;;3.50;;
5845;SDS011;2949;50.778;7.094;2022-10-19T13:36:04;18.13;;;3.33;;
5845;SDS011;2949;50.778;7.094;2022-10-19T13:43:49;4.57;;;2.50;;
5845;SDS011;2949;50.778;7.094;2022-10-19T13:54:03;9.50;;;2.60;;
5845;SDS011;2949;50.778;7.094;2022-10-19T13:57:10;4.80;;;2.80;;
5845;SDS011;2949;50.778;7.094;2022-10-19T14:02:25;4.83;;;2.27;;
5845;SDS011;2949;50.778;7.094;2022-10-19T14:08:02;9.83;;;2.57;;
5845;SDS011;2949;50.778;7.094;2022-10-19T14:10:45;19.87;;;3.43;;
5845;SDS011;2949;50.778;7.094;2022-10-19T14:13:15;8.43;;;2.53;;
5845;SDS011;2949;50.778;7.094;2022-10-19T14:15:49;11.33;;;3.40;;
5845;SDS011;2949;50.778;7.094;2022-10-19T14:18:21;12.70;;;2.70;;
5845;SDS011;2949;50.778;7.094;2022-10-19T14:21:07;4.43;;;3.00;;
5845;SDS011;2949;50.778;7.094;2022-10-19T14:23:35;3.63;;;2.13;;
5845;SDS011;2949;50.778;7.094;2022-10-19T14:26:04;5.87;;;2.80;;
5845;SDS011;2949;50.778;7.094;2022-10-19T14:28:35;3.50;;;2.33;;
5845;SDS011;2949;50.778;7.094;2022-10-19T14:31:02;6.37;;;2.90;;
5845;SDS011;2949;50.778;7.094;2022-10-19T14:33:44;7.10;;;2.27;;
5845;SDS011;2949;50.778;7.094;2022-10-19T14:36:18;5.20;;;2.73;;
5845;SDS011;2949;50.778;7.094;2022-10-19T14:38:47;9.83;;;4.00;;
5845;SDS011;2949;50.778;7.094;2022-10-19T14:43:51;9.33;;;3.20;;
5845;SDS011;2949;50.778;7.094;2022-10-19T14:46:17;7.20;;;3.03;;
5845;SDS011;2949;50.778;7.094;2022-10-19T14:48:47;8.00;;;3.07;;
5845;SDS011;2949;50.778;7.094;2022-10-19T14:51:16;6.53;;;3.00;;
5845;SDS011;2949;50.778;7.094;2022-10-19T14:53:56;2.83;;;2.63;;
5845;SDS011;2949;50.778;7.094;2022-10-19T14:59:01;6.63;;;2.60;;
5845;SDS011;2949;50.778;7.094;2022-10-19T15:01:30;10.80;;;3.20;;
5845;SDS011;2949;50.778;7.094;2022-10-19T15:03:56;12.63;;;3.00;;
5845;SDS011;2949;50.778;7.094;2022-10-19T15:06:32;6.83;;;2.57;;
5845;SDS011;2949;50.778;7.094;2022-10-19T15:09:06;9.33;;;2.33;;
5845;SDS011;2949;50.778;7.094;2022-10-19T15:11:42;4.40;;;2.50;;
5845;SDS011;2949;50.778;7.094;2022-10-19T15:24:39;10.77;;;4.33;;
5845;SDS011;2949;50.778;7.094;2022-10-19T15:27:20;4.83;;;2.03;;
5845;SDS011;2949;50.778;7.094;2022-10-19T15:29:53;6.00;;;3.10;;
5845;SDS011;2949;50.778;7.094;2022-10-19T15:32:24;4.60;;;2.43;;
5845;SDS011;2949;50.778;7.094;2022-10-19T15:34:55;4.57;;;2.70;;
5845;SDS011;2949;50.778;7.094;2022-10-19T15:37:22;6.47;;;2.93;;
5845;SDS011;2949;50.778;7.094;2022-10-19T15:39:49;8.20;;;2.60;;
5845;SDS011;2949;50.778;7.094;2022-10-19T15:45:02;7.33;;;3.00;;
5845;SDS011;2949;50.778;7.094;2022-10-19T15:48:13;5.30;;;2.77;;
5845;SDS011;2949;50.778;7.094;2022-10-19T15:50:44;9.80;;;2.80;;
5845;SDS011;2949;50.778;7.094;2022-10-19T15:53:12;7.23;;;2.60;;
5845;SDS011;2949;50.778;7.094;2022-10-19T15:55:38;3.63;;;2.60;;
5845;SDS011;2949;50.778;7.094;2022-10-19T15:58:03;5.70;;;2.70;;
5845;SDS011;2949;50.778;7.094;2022-10-19T16:00:29;5.23;;;3.23;;
5845;SDS011;2949;50.778;7.094;2022-10-19T16:02:55;6.10;;;2.77;;
5845;SDS011;2949;50.778;7.094;2022-10-19T16:05:21;4.17;;;2.77;;
5845;SDS011;2949;50.778;7.094;2022-10-19T16:07:46;6.13;;;2.60;;
5845;SDS011;2949;50.778;7.094;2022-10-19T16:10:16;4.27;;;2.63;;
5845;SDS011;2949;50.778;7.094;2022-10-19T16:12:43;5.60;;;2.77;;
5845;SDS011;2949;50.778;7.094;2022-10-19T16:15:13;20.70;;;3.37;;
5845;SDS011;2949;50.778;7.094;2022-10-19T16:17:46;9.43;;;3.30;;
5845;SDS011;2949;50.778;7.094;2022-10-19T16:20:14;6.67;;;2.90;;
5845;SDS011;2949;50.778;7.094;2022-10-19T16:22:40;8.50;;;3.47;;
5845;SDS011;2949;50.778;7.094;2022-10-19T16:25:06;4.60;;;3.43;;
5845;SDS011;2949;50.778;7.094;2022-10-19T16:27:31;9.57;;;3.97;;
5845;SDS011;2949;50.778;7.094;2022-10-19T16:29:57;6.60;;;3.50;;
5845;SDS011;2949;50.778;7.094;2022-10-19T16:32:22;10.93;;;3.10;;
5845;SDS011;2949;50.778;7.094;2022-10-19T16:34:48;7.13;;;3.17;;
5845;SDS011;2949;50.778;7.094;2022-10-19T16:37:13;7.73;;;3.30;;
5845;SDS011;2949;50.778;7.094;2022-10-19T16:39:39;10.67;;;3.67;;
5845;SDS011;2949;50.778;7.094;2022-10-19T16:42:04;4.43;;;3.73;;
5845;SDS011;2949;50.778;7.094;2022-10-19T16:44:30;7.83;;;3.40;;
5845;SDS011;2949;50.778;7.094;2022-10-19T16:46:55;7.47;;;3.43;;
5845;SDS011;2949;50.778;7.094;2022-10-19T16:49:22;5.53;;;3.30;;
5845;SDS011;2949;50.778;7.094;2022-10-19T16:51:47;3.50;;;3.00;;
5845;SDS011;2949;50.778;7.094;2022-10-19T16:54:13;6.10;;;3.40;;
5845;SDS011;2949;50.778;7.094;2022-10-19T16:56:43;10.13;;;3.30;;
5845;SDS011;2949;50.778;7.094;2022-10-19T16:59:10;11.10;;;3.37;;
5845;SDS011;2949;50.778;7.094;2022-10-19T17:01:38;12.20;;;2.90;;
5845;SDS011;2949;50.778;7.094;2022-10-19T17:04:04;6.10;;;3.20;;
5845;SDS011;2949;50.778;7.094;2022-10-19T17:06:29;10.93;;;3.43;;
5845;SDS011;2949;50.778;7.094;2022-10-19T17:08:56;7.60;;;3.70;;
5845;SDS011;2949;50.778;7.094;2022-10-19T17:11:25;8.30;;;3.43;;
5845;SDS011;2949;50.778;7.094;2022-10-19T17:13:53;11.73;;;3.77;;
5845;SDS011;2949;50.778;7.094;2022-10-19T17:16:20;6.60;;;3.63;;
5845;SDS011;2949;50.778;7.094;2022-10-19T17:18:46;5.47;;;3.80;;
5845;SDS011;2949;50.778;7.094;2022-10-19T17:21:13;8.90;;;3.47;;
5845;SDS011;2949;50.778;7.094;2022-10-19T17:23:41;8.07;;;3.53;;
5845;SDS011;2949;50.778;7.094;2022-10-19T17:26:07;9.50;;;3.60;;